Blue River Airport
CYCP : rendu visible

Aérodrome :











RETROUVEZ-NOUS SUR...

 
LOGIN :

S'inscrire | Disclaimer

   EN    FR    IT 

 









Légende :    VFR   VFR Marginal   IFR   IFR Intensif   IFR Très Intensif
Visi : 
Plafond : 
>= 8 km
>= 3000ft
5 à 8 km
1000 à 3000 ft
1500m à 5 km
500 à 1000 ft
800 à 1500m
200 à 500 ft
< 800m
< 200 ft
Symboles :   Orages  Brouillard  Fortes neiges  Fortes précipitations  Vent > 20 kt






- Altitude de l'aérodrome : 2240 ft


CYCP - Blue River

DERNIER METAR :
  • 201600Z 00000KT 15SM FEW004 BKN031 M04/M04 A3030 RMK ST2SC4 FROIN SLP301

METARs EXPIRÉS :
  • 201500Z 00000KT 15SM FEW004 BKN033 M05/M06 A3030 RMK ST1SC5 ST TR FROIN SLP300
  • 201400Z 00000KT 15SM FEW003 BKN032 M06/M06 A3029 RMK ST1SC4 FROIN SLP297

TAF N/A



MET'MAP, la Météo Aéronautique d'un coup d'oeil ! - Copyright ORBIFLY Décembre 2007 - Disclaimer

ORBIFLY MET'MAP TEAM :

Programmation & Développement : Alexandra Zaïnal
Conception & Développement : Baudouin d'Aumeries
Co-Programmation & Développement : Marc-Olivier Méhu
Soutien technique & logistique : Manuel Goepfert

Contact : metmap@orbifly.com




SOURCES & CREDITS :

   NOAA       Earth
Advisory